createdAt,value
2023-04-18T00:00:28.846Z,5.69
2023-04-18T00:01:30.450Z,5.71
2023-04-18T00:02:33.380Z,5.71
2023-04-18T00:03:38.138Z,5.69
2023-04-18T00:04:40.030Z,5.69
2023-04-18T00:05:43.928Z,5.69
2023-04-18T00:06:47.131Z,5.66
2023-04-18T00:07:48.734Z,5.75
2023-04-18T00:08:51.018Z,5.72
2023-04-18T00:09:52.570Z,5.70
2023-04-18T00:10:54.055Z,5.70
2023-04-18T00:11:55.592Z,5.72
2023-04-18T00:12:58.498Z,5.69
2023-04-18T00:13:59.998Z,5.72
2023-04-18T00:15:02.981Z,5.72
2023-04-18T00:16:04.842Z,5.68
2023-04-18T00:17:10.373Z,5.67
2023-04-18T00:18:15.889Z,5.72
2023-04-18T00:19:18.411Z,5.67
2023-04-18T00:20:20.049Z,5.63
2023-04-18T00:21:22.511Z,5.63
2023-04-18T00:22:25.016Z,5.64
2023-04-18T00:23:28.370Z,5.62
2023-04-18T00:24:29.972Z,5.67
2023-04-18T00:25:31.595Z,5.66
2023-04-18T00:26:33.066Z,5.66
2023-04-18T00:27:34.741Z,5.73
2023-04-18T00:28:36.910Z,5.74
2023-04-18T00:29:38.400Z,5.76
2023-04-18T00:30:40.289Z,5.69
2023-04-18T00:31:41.960Z,5.69
2023-04-18T00:32:43.543Z,5.70
2023-04-18T00:33:44.990Z,5.77
2023-04-18T00:34:46.505Z,5.75
2023-04-18T00:35:48.024Z,5.72
2023-04-18T00:36:49.563Z,5.70
2023-04-18T00:37:51.871Z,5.65
2023-04-18T00:38:53.422Z,5.69
2023-04-18T00:39:54.975Z,5.76
2023-04-18T00:40:56.778Z,5.73
2023-04-18T00:41:58.233Z,5.68
2023-04-18T00:43:00.227Z,5.64
2023-04-18T00:44:01.800Z,5.65
2023-04-18T00:45:03.532Z,5.67
2023-04-18T00:46:05.246Z,5.70
2023-04-18T00:47:06.841Z,5.81
2023-04-18T00:48:09.245Z,5.79
2023-04-18T00:49:11.802Z,5.73
2023-04-18T00:50:14.310Z,5.77
2023-04-18T00:51:16.409Z,5.72
2023-04-18T00:52:18.761Z,5.72
2023-04-18T00:53:20.286Z,5.71
2023-04-18T00:54:22.791Z,5.69
2023-04-18T00:55:24.746Z,5.71
2023-04-18T00:56:26.669Z,5.70
2023-04-18T00:57:29.292Z,5.75
2023-04-18T00:58:32.131Z,5.73
2023-04-18T00:59:35.439Z,5.76
2023-04-18T01:00:37.076Z,5.72
2023-04-18T01:01:40.146Z,5.65
2023-04-18T01:02:42.045Z,5.83
2023-04-18T01:03:43.922Z,5.78
2023-04-18T01:04:45.561Z,5.71
2023-04-18T01:05:47.192Z,5.62
2023-04-18T01:06:48.812Z,5.63
2023-04-18T01:07:50.469Z,5.66
2023-04-18T01:08:52.132Z,5.71
2023-04-18T01:09:54.106Z,5.64
2023-04-18T01:10:55.621Z,5.64
2023-04-18T01:11:57.139Z,5.68
2023-04-18T01:13:16.582Z,5.61
2023-04-18T01:14:19.509Z,5.66
2023-04-18T01:15:21.021Z,5.64
2023-04-18T01:16:22.685Z,5.72
2023-04-18T01:17:25.336Z,5.70
2023-04-18T01:18:27.298Z,5.66
2023-04-18T01:19:28.777Z,5.61
2023-04-18T01:20:31.175Z,5.59
2023-04-18T01:21:44.036Z,5.62
2023-04-18T01:22:47.952Z,5.66
2023-04-18T01:23:50.660Z,5.70
2023-04-18T01:24:52.109Z,5.79
2023-04-18T01:25:53.684Z,5.79
2023-04-18T01:26:55.368Z,5.76
2023-04-18T01:27:58.777Z,5.77
2023-04-18T01:29:02.164Z,5.76
2023-04-18T01:30:05.365Z,5.80
2023-04-18T01:31:07.183Z,5.68
2023-04-18T01:32:11.532Z,5.72
2023-04-18T01:33:13.050Z,5.69
2023-04-18T01:34:14.881Z,5.68
2023-04-18T01:35:17.809Z,5.61
2023-04-18T01:36:19.318Z,5.66
2023-04-18T01:37:20.802Z,5.65
2023-04-18T01:38:22.354Z,5.62
2023-04-18T01:39:24.088Z,5.60
2023-04-18T01:40:27.554Z,5.60
2023-04-18T01:41:32.282Z,5.58
2023-04-18T01:42:33.790Z,5.64
2023-04-18T01:43:35.643Z,5.68
2023-04-18T01:44:38.434Z,5.61
2023-04-18T01:45:40.177Z,5.61
2023-04-18T01:46:43.563Z,5.55
2023-04-18T01:47:45.150Z,5.58
2023-04-18T01:48:46.664Z,5.57
2023-04-18T01:49:48.407Z,5.59
2023-04-18T01:50:49.957Z,5.59
2023-04-18T01:51:51.446Z,5.64
2023-04-18T01:52:53.149Z,5.61
2023-04-18T01:53:54.798Z,5.55
2023-04-18T01:54:56.553Z,5.66
2023-04-18T01:55:58.546Z,5.71
2023-04-18T01:57:00.031Z,5.62
2023-04-18T01:58:01.522Z,5.62
2023-04-18T01:59:03.908Z,5.62
2023-04-18T02:00:07.124Z,5.56
2023-04-18T02:01:17.606Z,5.58
2023-04-18T02:02:19.407Z,5.57
2023-04-18T02:03:21.134Z,5.53
2023-04-18T02:04:22.915Z,5.55
2023-04-18T02:05:25.125Z,5.50
2023-04-18T02:06:26.933Z,5.48
2023-04-18T02:07:28.537Z,5.50
2023-04-18T02:08:35.395Z,5.52
2023-04-18T02:09:39.280Z,5.48
2023-04-18T02:10:41.535Z,5.50
2023-04-18T02:11:44.130Z,5.48
2023-04-18T02:12:45.784Z,5.51
2023-04-18T02:13:47.287Z,5.59
2023-04-18T02:14:52.920Z,5.54
2023-04-18T02:15:54.426Z,5.57
2023-04-18T02:16:55.995Z,5.55
2023-04-18T02:18:00.054Z,5.50
2023-04-18T02:19:04.226Z,5.52
2023-04-18T02:20:08.220Z,5.48
2023-04-18T02:21:11.220Z,5.56
2023-04-18T02:22:12.754Z,5.57
2023-04-18T02:23:14.227Z,5.56
2023-04-18T02:24:16.180Z,5.53
2023-04-18T02:25:18.573Z,5.47
2023-04-18T02:26:23.162Z,5.45
2023-04-18T02:27:24.791Z,5.44
2023-04-18T02:28:31.323Z,5.49
2023-04-18T02:29:32.835Z,5.46
2023-04-18T02:30:34.449Z,5.44
2023-04-18T02:31:39.217Z,5.43
2023-04-18T02:32:43.963Z,5.45
2023-04-18T02:33:46.631Z,5.47
2023-04-18T02:34:48.304Z,5.41
2023-04-18T02:35:51.230Z,5.40
2023-04-18T02:36:52.733Z,5.41
2023-04-18T02:37:54.295Z,5.50
2023-04-18T02:38:55.808Z,5.43
2023-04-18T02:39:57.355Z,5.49
2023-04-18T02:40:58.836Z,5.49
2023-04-18T02:42:01.985Z,5.43
2023-04-18T02:43:03.533Z,5.40
2023-04-18T02:44:06.904Z,5.39
2023-04-18T02:45:12.161Z,5.41
2023-04-18T02:46:14.480Z,5.48
2023-04-18T02:47:16.593Z,5.53
2023-04-18T02:48:23.019Z,5.48
2023-04-18T02:49:24.582Z,5.50
2023-04-18T02:50:27.021Z,5.51
2023-04-18T02:51:29.984Z,5.52
2023-04-18T02:52:33.641Z,5.60
2023-04-18T02:53:35.671Z,5.52
2023-04-18T02:54:37.214Z,5.51
2023-04-18T02:55:46.971Z,5.49
2023-04-18T02:56:48.861Z,5.49
2023-04-18T02:57:58.477Z,5.52
2023-04-18T02:59:35.299Z,5.60
2023-04-18T03:00:54.570Z,5.52
2023-04-18T03:02:14.807Z,5.48
2023-04-18T03:03:24.235Z,5.41
2023-04-18T03:04:33.261Z,5.42
2023-04-18T03:05:39.918Z,5.39
2023-04-18T03:06:41.715Z,5.39
2023-04-18T03:07:43.419Z,5.40
2023-04-18T03:08:45.187Z,5.40
2023-04-18T03:09:46.641Z,5.43
2023-04-18T03:10:58.960Z,5.40
2023-04-18T03:12:02.757Z,5.40
2023-04-18T03:13:06.288Z,5.39
2023-04-18T03:14:08.385Z,5.43
2023-04-18T03:15:23.145Z,5.49
2023-04-18T03:16:24.777Z,5.49
2023-04-18T03:17:26.388Z,5.48
2023-04-18T03:18:27.914Z,5.51
2023-04-18T03:19:32.129Z,5.48
2023-04-18T03:20:39.952Z,5.48
2023-04-18T03:21:42.386Z,5.51
2023-04-18T03:22:45.430Z,5.48
2023-04-18T03:23:48.530Z,5.42
2023-04-18T03:24:50.142Z,5.47
2023-04-18T03:25:52.730Z,5.40
2023-04-18T03:26:54.700Z,5.49
2023-04-18T03:28:00.361Z,5.47
2023-04-18T03:29:03.034Z,5.47
2023-04-18T03:30:05.255Z,5.46
2023-04-18T03:31:07.849Z,5.42
2023-04-18T03:32:12.601Z,5.38
2023-04-18T03:33:14.725Z,5.35
2023-04-18T03:34:16.625Z,5.34
2023-04-18T03:35:19.066Z,5.33
2023-04-18T03:36:25.197Z,5.40
2023-04-18T03:37:28.264Z,5.36
2023-04-18T03:38:31.499Z,5.37
2023-04-18T03:39:32.947Z,5.43
2023-04-18T03:40:34.930Z,5.34
2023-04-18T03:41:42.629Z,5.38
2023-04-18T03:42:44.824Z,5.31
2023-04-18T03:43:46.278Z,5.30
2023-04-18T03:44:47.758Z,5.20
2023-04-18T03:45:50.090Z,5.14
2023-04-18T03:46:52.818Z,5.22
2023-04-18T03:47:54.908Z,5.24
2023-04-18T03:48:57.675Z,5.19
2023-04-18T03:49:59.129Z,5.24
2023-04-18T03:51:01.698Z,5.28
2023-04-18T03:52:03.363Z,5.26
2023-04-18T03:53:05.048Z,5.34
2023-04-18T03:54:09.467Z,5.36
2023-04-18T03:55:11.449Z,5.31
2023-04-18T03:56:13.177Z,5.30
2023-04-18T03:57:30.388Z,5.27
2023-04-18T03:58:32.318Z,5.25
2023-04-18T03:59:34.360Z,5.30
2023-04-18T04:00:35.995Z,5.32
2023-04-18T04:01:42.586Z,5.28
2023-04-18T04:02:44.308Z,5.24
2023-04-18T04:03:52.858Z,5.40
2023-04-18T04:04:56.033Z,5.42
2023-04-18T04:05:58.000Z,5.35
2023-04-18T04:07:00.202Z,5.24
2023-04-18T04:08:01.669Z,5.24
2023-04-18T04:09:03.484Z,5.31
2023-04-18T04:10:05.421Z,5.31
2023-04-18T04:11:06.977Z,5.30
2023-04-18T04:12:08.525Z,5.34
2023-04-18T04:13:12.312Z,5.33
2023-04-18T04:14:15.386Z,5.40
2023-04-18T04:15:20.043Z,5.36
2023-04-18T04:16:34.815Z,5.31
2023-04-18T04:17:37.055Z,5.36
2023-04-18T04:18:38.598Z,5.22
2023-04-18T04:19:40.052Z,5.24
2023-04-18T04:20:48.032Z,5.23
2023-04-18T04:22:02.302Z,5.23
2023-04-18T04:23:03.903Z,5.23
2023-04-18T04:24:07.481Z,5.20
2023-04-18T04:25:17.254Z,5.20
2023-04-18T04:26:18.826Z,5.14
2023-04-18T04:27:29.575Z,5.07
2023-04-18T04:28:31.683Z,5.22
2023-04-18T04:29:39.134Z,5.23
2023-04-18T04:30:41.728Z,5.26
2023-04-18T04:31:43.842Z,5.11
2023-04-18T04:32:45.584Z,5.22
2023-04-18T04:33:47.147Z,5.24
2023-04-18T04:34:53.561Z,5.28
2023-04-18T04:35:56.119Z,5.22
2023-04-18T04:36:58.416Z,5.27
2023-04-18T04:38:01.646Z,5.24
2023-04-18T04:39:11.392Z,5.20
2023-04-18T04:40:31.584Z,5.22
2023-04-18T04:41:47.337Z,5.16
2023-04-18T04:42:54.144Z,5.16
2023-04-18T04:44:05.616Z,5.16
2023-04-18T04:45:10.907Z,5.14
2023-04-18T04:46:13.670Z,5.17
2023-04-18T04:47:17.028Z,5.14
2023-04-18T04:48:19.996Z,5.09
2023-04-18T04:49:21.970Z,5.10
2023-04-18T04:50:23.430Z,5.09
2023-04-18T04:51:25.019Z,5.05
2023-04-18T04:52:26.603Z,5.09
2023-04-18T04:53:32.326Z,5.16
2023-04-18T04:54:35.842Z,5.09
2023-04-18T04:55:39.579Z,5.14
2023-04-18T04:56:41.741Z,5.11
2023-04-18T04:57:44.760Z,5.15
2023-04-18T04:59:04.606Z,5.05
2023-04-18T05:00:11.195Z,5.15
2023-04-18T05:01:12.973Z,5.14
2023-04-18T05:02:15.857Z,5.20
2023-04-18T05:03:17.537Z,5.17
2023-04-18T05:04:19.552Z,5.19
2023-04-18T05:05:21.534Z,5.18
2023-04-18T05:06:24.350Z,5.09
2023-04-18T05:07:25.929Z,5.09
2023-04-18T05:08:27.825Z,5.02
2023-04-18T05:09:29.654Z,5.06
2023-04-18T05:10:31.258Z,5.07
2023-04-18T05:11:32.829Z,5.13
2023-04-18T05:12:34.287Z,5.17
2023-04-18T05:13:35.913Z,5.14
2023-04-18T05:14:37.390Z,5.19
2023-04-18T05:15:39.338Z,5.11
2023-04-18T05:16:41.553Z,5.15
2023-04-18T05:17:43.084Z,5.13
2023-04-18T05:18:44.585Z,5.15
2023-04-18T05:19:46.137Z,5.20
2023-04-18T05:20:47.618Z,5.27
2023-04-18T05:21:49.147Z,5.17
2023-04-18T05:22:50.662Z,5.15
2023-04-18T05:23:52.105Z,5.08
2023-04-18T05:24:53.563Z,5.07
2023-04-18T05:25:55.091Z,5.03
2023-04-18T05:26:57.077Z,5.09
2023-04-18T05:28:01.468Z,5.16
2023-04-18T05:29:02.918Z,5.18
2023-04-18T05:30:04.784Z,5.18
2023-04-18T05:31:06.299Z,5.22
2023-04-18T05:32:07.849Z,5.20
2023-04-18T05:33:09.356Z,5.17
2023-04-18T05:34:11.066Z,5.25
2023-04-18T05:35:12.713Z,5.14
2023-04-18T05:36:14.265Z,5.16
2023-04-18T05:37:15.847Z,5.13
2023-04-18T05:38:17.325Z,5.22
2023-04-18T05:39:19.024Z,5.20
2023-04-18T05:40:20.462Z,5.23
2023-04-18T05:41:22.219Z,5.26
2023-04-18T05:42:23.757Z,5.31
2023-04-18T05:43:25.486Z,5.22
2023-04-18T05:44:27.005Z,5.23
2023-04-18T05:45:28.755Z,5.13
2023-04-18T05:46:30.456Z,5.26
2023-04-18T05:47:33.611Z,5.29
2023-04-18T05:48:35.675Z,5.26
2023-04-18T05:49:37.256Z,5.30
2023-04-18T05:50:38.827Z,5.36
2023-04-18T05:51:40.351Z,5.36
2023-04-18T05:52:42.166Z,5.42
2023-04-18T05:53:43.683Z,5.39
2023-04-18T05:54:45.478Z,5.47
2023-04-18T05:55:48.669Z,5.52
2023-04-18T05:56:50.507Z,5.63
2023-04-18T05:57:52.010Z,5.72
2023-04-18T05:58:53.525Z,5.77
2023-04-18T05:59:54.977Z,5.81
2023-04-18T06:00:56.793Z,5.89
2023-04-18T06:01:58.340Z,5.93
2023-04-18T06:03:00.082Z,5.96
2023-04-18T06:04:01.968Z,6.03
2023-04-18T06:05:03.874Z,6.09
2023-04-18T06:06:06.002Z,6.18
2023-04-18T06:07:08.064Z,6.18
2023-04-18T06:08:09.605Z,6.11
2023-04-18T06:09:12.324Z,6.09
2023-04-18T06:10:14.157Z,6.04
2023-04-18T06:11:15.801Z,6.20
2023-04-18T06:12:17.253Z,6.25
2023-04-18T06:13:18.775Z,6.13
2023-04-18T06:14:20.554Z,6.06
2023-04-18T06:15:22.054Z,6.10
2023-04-18T06:16:23.615Z,6.06
2023-04-18T06:17:25.237Z,6.00
2023-04-18T06:18:26.795Z,6.06
2023-04-18T06:19:28.399Z,5.96
2023-04-18T06:20:30.195Z,5.92
2023-04-18T06:21:32.001Z,6.04
2023-04-18T06:22:36.381Z,5.98
2023-04-18T06:23:38.484Z,6.02
2023-04-18T06:24:39.964Z,5.95
2023-04-18T06:25:42.409Z,5.87
2023-04-18T06:26:43.887Z,5.94
2023-04-18T06:27:45.378Z,5.87
2023-04-18T06:28:46.905Z,5.86
2023-04-18T06:29:48.450Z,5.88
2023-04-18T06:30:49.968Z,5.83
2023-04-18T06:31:52.133Z,5.83
2023-04-18T06:32:53.781Z,5.85
2023-04-18T06:33:55.350Z,5.81
2023-04-18T06:34:56.903Z,5.82
2023-04-18T06:35:58.461Z,5.96
2023-04-18T06:37:00.182Z,6.01
2023-04-18T06:38:01.755Z,5.92
2023-04-18T06:39:03.766Z,6.01
2023-04-18T06:40:06.028Z,5.94
2023-04-18T06:41:07.617Z,5.94
2023-04-18T06:42:09.164Z,5.96
2023-04-18T06:43:18.977Z,6.01
2023-04-18T06:44:20.484Z,5.91
2023-04-18T06:45:21.972Z,6.12
2023-04-18T06:46:23.629Z,6.14
2023-04-18T06:47:25.612Z,6.10
2023-04-18T06:48:27.157Z,6.11
2023-04-18T06:49:28.681Z,6.28
2023-04-18T06:50:30.533Z,6.33
2023-04-18T06:51:32.353Z,6.43
2023-04-18T06:52:33.971Z,6.34
2023-04-18T06:53:35.502Z,6.48
2023-04-18T06:54:37.008Z,6.35
2023-04-18T06:55:38.561Z,6.39
2023-04-18T06:56:40.129Z,6.42
2023-04-18T06:57:43.098Z,6.38
2023-04-18T06:58:44.663Z,6.36
2023-04-18T06:59:46.135Z,6.49
2023-04-18T07:00:51.767Z,6.67
2023-04-18T07:01:53.356Z,6.62
2023-04-18T07:02:54.991Z,6.60
2023-04-18T07:03:56.669Z,6.70
2023-04-18T07:04:58.288Z,6.77
2023-04-18T07:06:00.168Z,6.73
2023-04-18T07:07:02.083Z,6.61
2023-04-18T07:08:03.603Z,6.53
2023-04-18T07:09:05.294Z,6.63
2023-04-18T07:10:09.450Z,6.71
2023-04-18T07:11:13.086Z,6.68
2023-04-18T07:12:14.613Z,6.71
2023-04-18T07:13:16.291Z,6.62
2023-04-18T07:14:19.797Z,6.67
2023-04-18T07:15:21.681Z,6.73
2023-04-18T07:16:23.272Z,6.54
2023-04-18T07:17:24.784Z,6.63
2023-04-18T07:18:36.655Z,6.80
2023-04-18T07:19:40.328Z,6.82
2023-04-18T07:20:41.874Z,6.83
2023-04-18T07:21:45.214Z,6.82
2023-04-18T07:22:47.951Z,6.80
2023-04-18T07:23:49.412Z,6.86
2023-04-18T07:24:50.953Z,6.93
2023-04-18T07:25:52.433Z,7.01
2023-04-18T07:26:55.165Z,7.04
2023-04-18T07:27:57.109Z,7.09
2023-04-18T07:28:58.836Z,7.11
2023-04-18T07:30:00.405Z,7.14
2023-04-18T07:31:03.322Z,7.14
2023-04-18T07:32:06.230Z,7.07
2023-04-18T07:33:09.546Z,7.02
2023-04-18T07:34:11.737Z,7.13
2023-04-18T07:35:13.398Z,6.92
2023-04-18T07:36:14.893Z,6.92
2023-04-18T07:37:18.304Z,6.97
2023-04-18T07:38:20.492Z,7.01
2023-04-18T07:39:22.362Z,7.08
2023-04-18T07:40:23.825Z,7.13
2023-04-18T07:41:25.329Z,7.34
2023-04-18T07:42:27.130Z,7.47
2023-04-18T07:43:28.661Z,7.32
2023-04-18T07:44:30.641Z,7.48
2023-04-18T07:45:33.447Z,7.48
2023-04-18T07:46:35.026Z,7.66
2023-04-18T07:47:36.645Z,7.86
2023-04-18T07:48:38.186Z,7.93
2023-04-18T07:49:39.688Z,7.99
2023-04-18T07:50:41.501Z,8.15
2023-04-18T07:51:42.980Z,8.07
2023-04-18T07:52:47.673Z,7.99
2023-04-18T07:53:49.135Z,8.18
2023-04-18T07:54:50.882Z,8.21
2023-04-18T07:55:54.399Z,8.20
2023-04-18T07:56:56.582Z,8.27
2023-04-18T07:57:58.072Z,8.31
2023-04-18T07:58:59.546Z,8.34
2023-04-18T08:00:01.055Z,8.44
2023-04-18T08:01:02.779Z,8.39
2023-04-18T08:02:04.395Z,8.49
2023-04-18T08:03:07.622Z,8.36
2023-04-18T08:04:09.470Z,8.33
2023-04-18T08:05:12.072Z,8.28
2023-04-18T08:06:14.155Z,8.10
2023-04-18T08:07:15.900Z,7.89
2023-04-18T08:08:17.485Z,7.79
2023-04-18T08:09:20.479Z,7.74
2023-04-18T08:10:23.741Z,7.88
2023-04-18T08:11:25.500Z,7.93
2023-04-18T08:12:27.035Z,7.71
2023-04-18T08:13:28.598Z,7.42
2023-04-18T08:14:30.102Z,7.44
2023-04-18T08:15:32.436Z,7.25
2023-04-18T08:16:34.209Z,7.14
2023-04-18T08:17:35.874Z,7.14
2023-04-18T08:18:37.751Z,7.15
2023-04-18T08:19:39.352Z,7.36
2023-04-18T08:20:40.983Z,7.37
2023-04-18T08:21:42.443Z,7.46
2023-04-18T08:22:57.469Z,7.51
2023-04-18T08:24:05.614Z,7.40
2023-04-18T08:25:07.597Z,7.42
2023-04-18T08:26:09.160Z,7.49
2023-04-18T08:27:10.919Z,7.63
2023-04-18T08:28:13.211Z,7.68
2023-04-18T08:29:14.963Z,7.51
2023-04-18T08:30:16.898Z,7.64
2023-04-18T08:31:18.487Z,7.55
2023-04-18T08:32:19.982Z,7.53
2023-04-18T08:33:23.245Z,7.40
2023-04-18T08:34:24.896Z,7.52
2023-04-18T08:35:26.599Z,7.54
2023-04-18T08:36:28.210Z,7.61
2023-04-18T08:37:30.254Z,7.62
2023-04-18T08:38:31.747Z,7.66
2023-04-18T08:39:33.252Z,7.83
2023-04-18T08:40:34.875Z,7.87
2023-04-18T08:41:37.832Z,7.81
2023-04-18T08:42:43.470Z,7.87
2023-04-18T08:43:48.864Z,7.82
2023-04-18T08:44:51.336Z,7.74
2023-04-18T08:45:58.653Z,7.55
2023-04-18T08:47:01.556Z,7.64
2023-04-18T08:48:03.700Z,7.60
2023-04-18T08:49:06.181Z,7.57
2023-04-18T08:50:09.580Z,7.57
2023-04-18T08:51:11.294Z,7.45
2023-04-18T08:52:14.164Z,7.56
2023-04-18T08:53:17.536Z,7.55
2023-04-18T08:54:20.845Z,7.53
2023-04-18T08:55:25.130Z,7.62
2023-04-18T08:56:27.230Z,7.60
2023-04-18T08:57:30.035Z,7.64
2023-04-18T08:58:33.562Z,7.70
2023-04-18T08:59:38.108Z,7.78
2023-04-18T09:00:39.608Z,7.94
2023-04-18T09:01:51.294Z,8.08
2023-04-18T09:02:57.149Z,8.15
2023-04-18T09:03:59.056Z,8.14
2023-04-18T09:05:01.011Z,8.13
2023-04-18T09:06:13.879Z,8.34
2023-04-18T09:07:17.056Z,8.59
2023-04-18T09:08:24.264Z,8.81
2023-04-18T09:09:27.578Z,8.90
2023-04-18T09:10:34.073Z,9.00
2023-04-18T09:11:35.703Z,8.94
2023-04-18T09:12:52.503Z,8.88
2023-04-18T09:13:56.373Z,9.11
2023-04-18T09:15:15.860Z,9.17
2023-04-18T09:16:20.663Z,9.32
2023-04-18T09:17:34.671Z,9.47
2023-04-18T09:18:36.309Z,9.56
2023-04-18T09:19:46.417Z,9.74
2023-04-18T09:20:49.871Z,9.78
2023-04-18T09:22:04.756Z,9.84
2023-04-18T09:23:21.564Z,9.67
2023-04-18T09:24:26.260Z,9.62
2023-04-18T09:25:45.027Z,9.67
2023-04-18T09:26:49.628Z,9.51
2023-04-18T09:27:51.263Z,9.31
2023-04-18T09:28:53.973Z,9.23
2023-04-18T09:29:57.382Z,9.26
2023-04-18T09:31:11.998Z,8.96
2023-04-18T09:32:26.841Z,8.98
2023-04-18T09:33:32.933Z,9.05
2023-04-18T09:34:38.221Z,9.01
2023-04-18T09:35:39.774Z,9.08
2023-04-18T09:36:41.375Z,8.77
2023-04-18T09:37:51.096Z,8.84
2023-04-18T09:38:56.248Z,8.47
2023-04-18T09:39:58.686Z,8.50
2023-04-18T09:41:13.433Z,8.51
2023-04-18T09:42:15.159Z,8.51
2023-04-18T09:43:20.449Z,8.62
2023-04-18T09:44:21.976Z,8.55
2023-04-18T09:45:24.604Z,8.58
2023-04-18T09:46:27.430Z,8.60
2023-04-18T09:47:29.516Z,8.61
2023-04-18T09:48:31.314Z,8.59
2023-04-18T09:49:32.982Z,8.67
2023-04-18T09:50:35.684Z,8.77
2023-04-18T09:51:40.319Z,8.76
2023-04-18T09:52:43.033Z,8.84
2023-04-18T09:53:45.162Z,8.94
2023-04-18T09:54:48.296Z,9.24
2023-04-18T09:55:54.829Z,9.36
2023-04-18T09:56:58.810Z,9.44
2023-04-18T09:58:03.624Z,9.95
2023-04-18T09:59:10.030Z,10.48
2023-04-18T10:00:27.146Z,10.62
2023-04-18T10:01:29.730Z,10.63
2023-04-18T10:02:39.845Z,10.89
2023-04-18T10:03:47.345Z,10.89
2023-04-18T10:04:51.138Z,11.13
2023-04-18T10:05:53.953Z,11.27
2023-04-18T10:06:56.727Z,11.41
2023-04-18T10:07:58.597Z,11.14
2023-04-18T10:09:04.044Z,11.38
2023-04-18T10:10:06.339Z,11.72
2023-04-18T10:11:07.881Z,11.40
2023-04-18T10:12:09.472Z,11.43
2023-04-18T10:13:13.351Z,11.23
2023-04-18T10:14:16.882Z,11.47
2023-04-18T10:15:21.159Z,11.27
2023-04-18T10:16:23.171Z,11.25
2023-04-18T10:17:29.283Z,11.11
2023-04-18T10:18:31.202Z,11.19
2023-04-18T10:19:32.735Z,10.80
2023-04-18T10:20:35.267Z,10.76
2023-04-18T10:21:37.065Z,10.49
2023-04-18T10:22:38.560Z,10.43
2023-04-18T10:23:40.511Z,10.33
2023-04-18T10:24:56.050Z,10.17
2023-04-18T10:25:58.758Z,10.26
2023-04-18T10:27:00.247Z,10.25
2023-04-18T10:28:03.534Z,10.36
2023-04-18T10:29:05.656Z,10.54
2023-04-18T10:30:09.096Z,10.46
2023-04-18T10:31:11.772Z,10.33
2023-04-18T10:32:13.386Z,10.33
2023-04-18T10:33:41.038Z,10.71
2023-04-18T10:34:44.707Z,10.76
2023-04-18T10:36:12.383Z,10.92
2023-04-18T10:37:14.882Z,11.23
2023-04-18T10:38:17.135Z,10.87
2023-04-18T10:39:25.382Z,10.85
2023-04-18T10:40:34.388Z,10.92
2023-04-18T10:41:49.461Z,11.12
2023-04-18T10:42:52.055Z,11.49
2023-04-18T10:44:12.383Z,11.74
2023-04-18T10:45:21.053Z,12.02
2023-04-18T10:46:31.921Z,12.43
2023-04-18T10:47:34.565Z,12.67
2023-04-18T10:48:39.048Z,12.65
2023-04-18T10:49:53.590Z,12.38
2023-04-18T10:51:13.429Z,12.53
2023-04-18T10:52:15.638Z,12.89
2023-04-18T10:53:17.120Z,12.46
2023-04-18T10:54:47.352Z,11.92
2023-04-18T10:55:54.497Z,11.84
2023-04-18T10:56:57.964Z,12.27
2023-04-18T10:57:59.621Z,12.10
2023-04-18T10:59:03.231Z,11.98
2023-04-18T11:00:08.748Z,11.70
2023-04-18T11:01:13.269Z,11.74
2023-04-18T11:02:14.770Z,11.74
2023-04-18T11:03:16.538Z,11.78
2023-04-18T11:04:18.662Z,11.79
2023-04-18T11:05:23.903Z,11.91
2023-04-18T11:06:27.144Z,11.96
2023-04-18T11:07:48.876Z,12.33
2023-04-18T11:08:50.382Z,12.51
2023-04-18T11:09:56.949Z,12.36
2023-04-18T11:10:59.500Z,12.06
2023-04-18T11:12:11.257Z,11.72
2023-04-18T11:13:12.730Z,11.81
2023-04-18T11:14:14.475Z,12.13
2023-04-18T11:15:21.529Z,12.30
2023-04-18T11:16:32.947Z,12.08
2023-04-18T11:17:35.736Z,12.28
2023-04-18T11:18:41.708Z,12.12
2023-04-18T11:19:43.462Z,12.01
2023-04-18T11:20:50.148Z,11.95
2023-04-18T11:21:51.822Z,11.95
2023-04-18T11:22:57.921Z,12.03
2023-04-18T11:23:59.400Z,11.79
2023-04-18T11:25:07.069Z,11.88
2023-04-18T11:26:08.654Z,11.45
2023-04-18T11:27:11.335Z,11.53
2023-04-18T11:28:13.586Z,11.50
2023-04-18T11:29:17.976Z,11.79
2023-04-18T11:30:19.608Z,12.02
2023-04-18T11:31:23.504Z,12.20
2023-04-18T11:32:25.280Z,12.37
2023-04-18T11:33:29.345Z,12.39
2023-04-18T11:34:31.504Z,12.15
2023-04-18T11:35:37.366Z,11.88
2023-04-18T11:36:38.964Z,11.76
2023-04-18T11:37:42.286Z,11.35
2023-04-18T11:38:43.797Z,11.25
2023-04-18T11:39:45.444Z,11.35
2023-04-18T11:40:48.482Z,11.20
2023-04-18T11:41:50.590Z,10.85
2023-04-18T11:42:54.460Z,10.69
2023-04-18T11:43:56.171Z,10.34
2023-04-18T11:44:57.688Z,10.48
2023-04-18T11:46:00.094Z,10.37
2023-04-18T11:47:01.686Z,10.41
2023-04-18T11:48:03.377Z,10.44
2023-04-18T11:49:05.154Z,10.35
2023-04-18T11:50:09.313Z,10.61
2023-04-18T11:51:35.590Z,10.54
2023-04-18T11:52:37.930Z,10.55
2023-04-18T11:53:39.574Z,10.68
2023-04-18T11:54:45.352Z,10.68
2023-04-18T11:55:56.138Z,10.67
2023-04-18T11:56:57.696Z,10.72
2023-04-18T11:58:01.321Z,10.84
2023-04-18T11:59:09.478Z,10.89
2023-04-18T12:00:12.454Z,11.07
2023-04-18T12:01:21.917Z,11.37
2023-04-18T12:02:25.961Z,11.58
2023-04-18T12:03:29.409Z,11.85
2023-04-18T12:04:50.040Z,12.15
2023-04-18T12:06:00.837Z,12.41
2023-04-18T12:07:02.617Z,12.48
2023-04-18T12:08:07.001Z,12.50
2023-04-18T12:09:13.816Z,12.38
2023-04-18T12:10:29.738Z,12.71
2023-04-18T12:11:31.209Z,12.80
2023-04-18T12:12:33.191Z,12.92
2023-04-18T12:13:34.724Z,12.81
2023-04-18T12:14:36.192Z,13.03
2023-04-18T12:15:40.910Z,12.99
2023-04-18T12:16:42.438Z,12.82
2023-04-18T12:17:45.321Z,12.58
2023-04-18T12:18:49.333Z,12.84
2023-04-18T12:19:50.851Z,13.13
2023-04-18T12:20:53.985Z,13.41
2023-04-18T12:22:00.722Z,13.43
2023-04-18T12:23:03.547Z,13.56
2023-04-18T12:24:17.173Z,13.78
2023-04-18T12:25:27.279Z,14.01
2023-04-18T12:26:29.146Z,14.00
2023-04-18T12:27:53.867Z,13.93
2023-04-18T12:28:55.501Z,14.59
2023-04-18T12:29:57.146Z,14.95
2023-04-18T12:30:59.327Z,15.37
2023-04-18T12:32:00.897Z,15.39
2023-04-18T12:33:03.683Z,15.18
2023-04-18T12:34:05.246Z,15.36
2023-04-18T12:35:07.672Z,15.48
2023-04-18T12:36:10.278Z,15.40
2023-04-18T12:37:11.773Z,15.33
2023-04-18T12:38:13.321Z,15.06
2023-04-18T12:39:14.839Z,15.17
2023-04-18T12:40:18.972Z,15.01
2023-04-18T12:41:20.770Z,14.59
2023-04-18T12:42:22.266Z,14.59
2023-04-18T12:43:23.734Z,14.50
2023-04-18T12:44:25.201Z,14.53
2023-04-18T12:45:26.766Z,14.50
2023-04-18T12:46:28.398Z,14.28
2023-04-18T12:47:30.107Z,13.97
2023-04-18T12:48:31.975Z,13.90
2023-04-18T12:49:33.468Z,13.67
2023-04-18T12:50:35.112Z,13.51
2023-04-18T12:51:36.633Z,13.69
2023-04-18T12:52:40.608Z,13.24
2023-04-18T12:53:42.348Z,13.01
2023-04-18T12:54:43.792Z,13.30
2023-04-18T12:55:45.644Z,13.16
2023-04-18T12:56:47.176Z,12.61
2023-04-18T12:57:51.082Z,12.83
2023-04-18T12:58:52.599Z,12.88
2023-04-18T12:59:54.079Z,13.11
2023-04-18T13:00:56.182Z,13.05
2023-04-18T13:01:57.708Z,13.06
2023-04-18T13:02:59.872Z,13.20
2023-04-18T13:04:11.955Z,13.05
2023-04-18T13:05:16.102Z,13.75
2023-04-18T13:06:17.611Z,14.12
2023-04-18T13:07:19.297Z,14.20
2023-04-18T13:08:21.126Z,14.28
2023-04-18T13:09:22.595Z,14.70
2023-04-18T13:10:26.760Z,14.95
2023-04-18T13:11:29.039Z,15.41
2023-04-18T13:12:30.744Z,15.25
2023-04-18T13:13:34.399Z,15.52
2023-04-18T13:14:37.144Z,15.56
2023-04-18T13:15:38.867Z,15.67
2023-04-18T13:16:43.116Z,15.57
2023-04-18T13:17:45.248Z,15.62
2023-04-18T13:18:46.945Z,15.25
2023-04-18T13:19:49.164Z,14.32
2023-04-18T13:20:50.663Z,13.81
2023-04-18T13:21:53.210Z,13.85
2023-04-18T13:22:54.700Z,13.54
2023-04-18T13:23:56.223Z,13.42
2023-04-18T13:24:57.676Z,13.22
2023-04-18T13:25:59.163Z,13.13
2023-04-18T13:27:02.360Z,12.92
2023-04-18T13:28:03.999Z,12.87
2023-04-18T13:29:05.553Z,12.80
2023-04-18T13:30:08.303Z,12.67
2023-04-18T13:31:09.755Z,12.54
2023-04-18T13:32:11.571Z,12.66
2023-04-18T13:33:13.370Z,12.55
2023-04-18T13:34:15.075Z,12.28
2023-04-18T13:35:16.601Z,12.53
2023-04-18T13:36:18.080Z,12.44
2023-04-18T13:37:20.063Z,12.36
2023-04-18T13:38:21.597Z,12.33
2023-04-18T13:39:24.760Z,12.36
2023-04-18T13:40:26.452Z,12.47
2023-04-18T13:41:28.870Z,12.64
2023-04-18T13:42:30.390Z,12.41
2023-04-18T13:43:31.950Z,12.37
2023-04-18T13:44:35.812Z,12.61
2023-04-18T13:45:37.387Z,12.81
2023-04-18T13:46:38.961Z,12.74
2023-04-18T13:47:40.525Z,13.16
2023-04-18T13:48:42.041Z,12.97
2023-04-18T13:49:43.608Z,13.19
2023-04-18T13:50:45.198Z,13.35
2023-04-18T13:51:46.686Z,13.28
2023-04-18T13:52:49.299Z,13.41
2023-04-18T13:53:51.634Z,13.18
2023-04-18T13:54:53.285Z,13.18
2023-04-18T13:55:54.898Z,13.22
2023-04-18T13:56:58.506Z,13.43
2023-04-18T13:58:00.074Z,13.40